Latest Weather Observations for Cape Grim

IDT60801

Issued at 11:35 pm EDT Saturday 25 October 2014 (issued every 30 minutes, with the page automatically refreshed every 10 minutes)

About weather observations | Map of weather stations | Latest weather observations for TAS | Other Formats
Station Details ID: 091331 Name: CAPE GRIM Lat: -40.68 Lon: 144.69 Height: 86.0 m
Data from the previous 72 hours. | See also: Recent months at Cape Grim
Date/Time
EDT
Temp
°C
App
Temp
°C
Dew
Point
Rel
Hum
%
Delta-T
°C
Wind Press
QNH
hPa
Press
MSL
hPa
Rain
since 9 am
mm
Dir
 
Spd
km/h
Gust
km/h
Spd
kts
Gust
kts
25/11:30pm 12.0 7.4 9.7 86 1.2 S 24 32 13 17 1015.3 1015.4 0.0
25/11:00pm 12.1 5.8 9.8 86 1.2 SSW 33 43 18 23 1015.5 1015.6 0.0
25/10:30pm 12.1 7.2 10.0 87 1.1 SSW 26 39 14 21 1015.9 1016.0 0.0
25/10:00pm 11.8 6.8 9.7 87 1.1 SSW 26 39 14 21 1015.8 1015.9 0.0
25/09:30pm 11.6 7.7 9.5 87 1.1 SSW 20 33 11 18 1015.5 1015.6 0.0
25/09:00pm 11.7 5.9 9.4 86 1.2 SSW 30 41 16 22 1015.4 1015.5 0.0
25/08:30pm 11.7 5.3 9.4 86 1.2 SSW 33 41 18 22 1015.0 1015.1 0.0
25/08:16pm 11.7 5.3 9.4 86 1.2 SSW 33 52 18 28 1014.8 1014.9 0.0
25/08:10pm 11.7 4.6 9.4 86 1.2 SSW 37 52 20 28 1014.8 1014.9 0.0
25/08:00pm 11.7 5.4 9.6 87 1.1 SSW 33 46 18 25 1014.8 1014.9 0.0
25/07:30pm 11.8 5.7 9.9 88 1.0 SSW 32 44 17 24 1014.8 1014.9 0.0
25/07:17pm 11.9 5.9 10.0 88 1.0 SW 32 50 17 27 1014.9 1015.0 0.0
25/07:00pm 12.1 5.1 10.0 87 1.1 SW 37 54 20 29 1015.1 1015.2 0.0
25/06:48pm 12.1 4.7 9.8 86 1.2 SW 39 57 21 31 1015.0 1015.1 0.0
25/06:30pm 12.4 5.4 10.0 85 1.2 SW 37 48 20 26 1014.7 1014.8 0.0
25/06:15pm 12.6 5.6 10.1 85 1.3 SW 37 48 20 26 1014.7 1014.8 0.0
25/06:00pm 12.6 5.6 10.1 85 1.3 SW 37 50 20 27 1014.7 1014.8 0.0
25/05:30pm 12.6 4.9 10.1 85 1.3 SW 41 52 22 28 1014.8 1014.9 0.0
25/05:29pm 12.5 4.8 10.0 85 1.3 SW 41 52 22 28 1014.8 1014.9 0.0
25/05:12pm 12.6 5.3 10.1 85 1.3 SW 39 48 21 26 1014.6 1014.7 0.0
25/05:00pm 12.7 5.4 10.1 84 1.3 SW 39 50 21 27 1014.6 1014.7 0.0
25/04:30pm 13.1 6.2 10.3 83 1.5 SW 37 46 20 25 1014.7 1014.8 0.0
25/04:00pm 13.1 5.7 9.9 81 1.6 SW 39 44 21 24 1014.9 1015.0 0.0
25/03:30pm 12.9 5.1 9.7 81 1.6 SW 41 50 22 27 1015.2 1015.3 0.0
25/03:00pm 13.0 5.3 10.0 82 1.5 SW 41 52 22 28 1015.5 1015.6 0.0
25/02:30pm 13.4 6.2 10.4 82 1.6 SW 39 48 21 26 1015.9 1016.0 0.0
25/02:00pm 13.3 6.8 10.3 82 1.6 SW 35 43 19 23 1016.0 1016.1 0.0
25/01:30pm 12.8 6.2 10.0 83 1.4 SW 35 44 19 24 1016.2 1016.3 0.0
25/01:00pm 13.1 6.7 10.6 85 1.3 SW 35 43 19 23 1016.5 1016.6 0.0
25/12:30pm 12.5 6.9 10.2 86 1.2 SW 30 41 16 22 1016.6 1016.7 0.0
25/12:00pm 12.6 7.7 10.1 85 1.3 SSW 26 33 14 18 1016.9 1017.0 0.0
25/11:30am 12.5 7.6 10.0 85 1.3 SW 26 37 14 20 1017.3 1017.4 0.0
25/11:17am 12.7 6.8 10.4 86 1.2 SW 32 39 17 21 1017.5 1017.6 0.0
25/11:00am 12.4 7.5 10.1 86 1.2 SW 26 37 14 20 1017.4 1017.5 0.0
25/10:30am 12.1 7.5 9.8 86 1.2 SW 24 33 13 18 1017.4 1017.5 0.0
25/10:06am 12.2 8.0 9.9 86 1.2 SSW 22 30 12 16 1017.0 1017.1 0.0
25/10:01am 12.2 7.7 9.9 86 1.2 SSW 24 33 13 18 1017.1 1017.2 0.0
25/10:00am 12.2 7.6 9.8 85 1.2 SSW 24 33 13 18 1017.1 1017.2 0.0
25/09:30am 12.3 7.8 10.2 87 1.1 SW 24 33 13 18 1016.9 1017.0 0.0
25/09:18am 12.2 7.0 10.3 88 1.0 SW 28 35 15 19 1016.9 1017.0 0.0
25/09:00am 12.1 6.9 10.3 89 0.9 SW 28 37 15 20 1016.8 1016.9 0.0
25/08:30am 12.1 6.5 10.3 89 0.9 SW 30 41 16 22 1016.5 1016.6 0.0
25/08:00am 12.1 7.0 10.7 91 0.7 SW 28 39 15 21 1016.3 1016.4 0.0
25/07:35am 12.1 7.1 10.8 92 0.7 SW 28 39 15 21 1016.0 1016.1 0.0
25/07:30am 12.0 6.1 10.6 91 0.7 SW 32 41 17 22 1015.9 1016.0 0.0
25/07:00am 12.0 5.9 10.6 91 0.7 SW 33 39 18 21 1015.2 1015.3 0.0
25/06:32am 12.2 7.0 10.4 89 0.9 SW 28 37 15 20 1015.1 1015.2 0.0
25/06:30am 12.3 7.5 10.4 88 1.0 SW 26 35 14 19 1015.2 1015.3 0.0
25/06:00am 12.2 6.2 10.1 87 1.1 SW 32 41 17 22 1015.1 1015.2 0.0
25/05:30am 12.3 5.4 10.2 87 1.1 SW 37 46 20 25 1014.7 1014.8 0.0
25/05:00am 12.4 5.6 10.5 88 1.0 SW 37 46 20 25 1014.3 1014.4 0.0
25/04:30am 12.4 5.7 11.0 91 0.7 SW 37 46 20 25 1013.9 1014.0 0.0
25/04:26am 12.5 5.8 11.1 91 0.7 SW 37 46 20 25 1013.9 1014.0 0.0
25/04:00am 12.5 6.2 11.2 92 0.7 SW 35 46 19 25 1013.7 1013.8 0.0
25/03:30am 12.6 5.7 11.5 93 0.6 SW 39 50 21 27 1013.6 1013.7 0.0
25/03:00am 12.7 7.0 11.8 94 0.5 SW 33 43 18 23 1013.5 1013.6 0.0
25/02:30am 12.7 5.9 11.8 94 0.5 SW 39 50 21 27 1013.5 1013.6 0.0
25/02:00am 12.8 6.8 12.0 95 0.4 SW 35 48 19 26 1013.4 1013.5 0.0
25/01:30am 12.9 7.9 12.1 95 0.4 SW 30 44 16 24 1013.4 1013.5 0.0
25/01:00am 12.9 8.2 12.1 95 0.4 WSW 28 43 15 23 1013.5 1013.6 0.0
25/12:30am 12.9 9.0 12.1 95 0.4 WSW 24 43 13 23 1013.5 1013.6 0.0
25/12:00am 13.0 9.2 12.4 96 0.3 W 24 39 13 21 1013.4 1013.5 0.0
 
Date/Time
EDT
Temp
°C
App
Temp
°C
Dew
Point
Rel
Hum
%
Delta-T
°C
Wind Press
QNH
hPa
Press
MSL
hPa
Rain
since 9 am
mm
Dir
 
Spd
km/h
Gust
km/h
Spd
kts
Gust
kts
24/11:30pm 13.1 10.1 12.5 96 0.3 W 20 37 11 20 1012.9 1013.0 0.0
24/11:00pm 13.2 9.5 12.6 96 0.3 W 24 35 13 19 1012.7 1012.7 0.0
24/10:30pm 13.4 9.3 12.8 96 0.3 W 26 33 14 18 1012.7 1012.7 0.0
24/10:00pm 13.5 9.5 12.9 96 0.3 W 26 33 14 18 1012.7 1012.7 0.0
24/09:30pm 13.5 10.2 12.9 96 0.3 W 22 30 12 16 1012.3 1012.3 0.0
24/09:00pm 13.5 10.2 12.9 96 0.3 W 22 30 12 16 1012.0 1012.0 0.0
24/08:30pm 13.5 10.8 12.9 96 0.3 W 19 26 10 14 1011.7 1011.7 0.0
24/08:14pm 13.4 10.7 12.8 96 0.3 W 19 24 10 13 1011.4 1011.4 0.0
24/08:00pm 13.4 11.0 12.8 96 0.3 W 17 22 9 12 1011.2 1011.2 0.0
24/07:35pm 13.5 10.8 12.9 96 0.3 W 19 26 10 14 1011.0 1011.0 0.0
24/07:30pm 13.5 10.8 12.9 96 0.3 W 19 26 10 14 1011.0 1011.0 0.0
24/07:00pm 13.6 10.7 13.0 96 0.3 W 20 28 11 15 1010.8 1010.8 0.0
24/06:30pm 13.7 9.0 13.1 96 0.3 W 30 39 16 21 1010.7 1010.7 0.0
24/06:26pm 13.8 9.1 13.2 96 0.3 W 30 39 16 21 1010.7 1010.7 0.0
24/06:00pm 14.1 12.4 13.5 96 0.3 N 15 19 8 10 1010.3 1010.3 0.0
24/05:30pm 14.4 11.8 13.8 96 0.3 ENE 20 28 11 15 1009.9 1009.9 0.0
24/05:00pm 14.4 10.7 13.8 96 0.3 ENE 26 33 14 18 1009.5 1009.5 0.0
24/04:30pm 14.3 9.4 13.7 96 0.3 ENE 32 41 17 22 1009.2 1009.2 0.0
24/04:00pm 14.1 9.1 13.5 96 0.3 E 32 39 17 21 1009.8 1009.8 0.0
24/03:30pm 13.9 8.2 13.1 95 0.4 E 35 44 19 24 1010.3 1010.3 0.0
24/03:00pm 13.9 7.5 13.1 95 0.4 E 39 46 21 25 1010.3 1010.3 0.0
24/02:30pm 13.8 7.0 13.0 95 0.4 E 41 50 22 27 1010.6 1010.6 0.0
24/02:00pm 13.8 6.0 13.0 95 0.4 E 46 59 25 32 1010.6 1010.6 0.0
24/01:30pm 13.5 4.8 12.7 95 0.4 E 50 63 27 34 1010.5 1010.5 0.0
24/01:00pm 13.2 3.3 12.3 94 0.5 E 56 67 30 36 1010.3 1010.3 0.0
24/12:30pm 13.0 3.8 12.1 94 0.5 E 52 65 28 35 1011.0 1011.0 0.0
24/12:00pm 12.8 2.6 11.9 94 0.5 E 57 70 31 38 1011.1 1011.1 0.0
24/11:38am 12.7 2.4 11.8 94 0.5 E 57 76 31 41 1011.3 1011.3 0.0
24/11:30am 12.6 2.3 11.7 94 0.5 E 57 69 31 37 1011.4 1011.4 0.0
24/11:00am 12.4 2.2 11.5 94 0.5 E 56 69 30 37 1012.2 1012.2 0.0
24/10:30am 12.1 1.8 11.2 94 0.5 E 56 69 30 37 1012.6 1012.6 0.0
24/10:00am 11.9 1.5 10.8 93 0.6 E 56 72 30 39 1012.9 1013.0 0.0
24/09:30am 11.8 0.8 10.7 93 0.6 E 59 82 32 44 1012.7 1012.7 0.0
24/09:11am 11.5 0.8 10.4 93 0.6 E 57 76 31 41 1013.1 1013.2 0.0
24/09:00am 11.4 0.3 10.3 93 0.6 E 59 74 32 40 1013.3 1013.4 0.0
24/08:30am 11.3 0.1 10.0 92 0.7 E 59 78 32 42 1013.8 1013.9 0.0
24/08:24am 11.3 0.1 10.0 92 0.7 E 59 78 32 42 1013.8 1013.9 0.0
24/08:00am 11.4 0.6 9.8 90 0.8 E 57 70 31 38 1014.0 1014.1 0.0
24/07:38am 11.4 -0.3 9.5 88 1.0 E 61 82 33 44 1013.8 1013.9 0.0
24/07:30am 11.4 -0.7 9.5 88 1.0 E 63 78 34 42 1013.8 1013.9 0.0
24/07:00am 11.5 -0.6 9.2 86 1.2 E 63 82 34 44 1014.2 1014.3 0.0
24/06:41am 11.6 -0.9 9.2 85 1.2 E 65 83 35 45 1014.1 1014.2 0.0
24/06:30am 11.6 -1.3 9.2 85 1.2 E 67 82 36 44 1014.3 1014.4 0.0
24/06:01am 11.6 -1.0 9.0 84 1.3 E 65 83 35 45 1014.4 1014.5 0.0
24/06:00am 11.6 -1.0 9.0 84 1.3 E 65 80 35 43 1014.5 1014.6 0.0
24/05:35am 11.6 -0.6 8.8 83 1.4 E 63 82 34 44 1014.8 1014.9 0.0
24/05:30am 11.7 -1.3 8.9 83 1.4 E 67 83 36 45 1014.9 1015.0 0.0
24/05:27am 11.7 -1.3 8.9 83 1.4 E 67 83 36 45 1014.9 1015.0 0.0
24/05:00am 11.8 0.0 9.0 83 1.4 E 61 80 33 43 1015.4 1015.5 0.0
24/04:30am 11.9 0.6 9.3 84 1.3 E 59 80 32 43 1015.4 1015.5 0.0
24/04:22am 11.9 0.1 9.1 83 1.4 E 61 80 33 43 1015.6 1015.7 0.0
24/04:00am 12.0 -0.5 9.2 83 1.4 E 65 80 35 43 1015.5 1015.6 0.0
24/03:43am 12.0 -0.9 9.0 82 1.5 E 67 87 36 47 1015.4 1015.5 0.0
24/03:30am 11.9 -0.6 9.1 83 1.4 E 65 82 35 44 1015.5 1015.6 0.0
24/03:03am 12.0 -0.5 9.2 83 1.4 E 65 83 35 45 1016.1 1016.2 0.0
24/03:00am 12.0 -0.1 9.2 83 1.4 E 63 80 34 43 1016.4 1016.5 0.0
24/02:30am 11.9 -0.2 9.3 84 1.3 E 63 83 34 45 1016.9 1017.0 0.0
24/02:00am 11.8 -0.3 9.2 84 1.3 E 63 87 34 47 1017.6 1017.7 0.0
24/01:34am 11.9 0.1 9.1 83 1.4 E 61 82 33 44 1018.0 1018.0 0.0
24/01:30am 11.9 0.1 9.1 83 1.4 E 61 78 33 42 1018.2 1018.2 0.0
24/01:00am 12.3 0.6 9.3 82 1.5 E 61 76 33 41 1018.7 1018.7 0.0
24/12:30am 12.1 1.1 9.3 83 1.4 E 57 78 31 42 1019.1 1019.1 0.0
24/12:11am 11.9 0.1 9.1 83 1.4 E 61 80 33 43 1019.1 1019.1 0.0
24/12:00am 11.9 -0.3 8.9 82 1.5 ENE 63 76 34 41 1019.2 1019.2 0.0
 
Date/Time
EDT
Temp
°C
App
Temp
°C
Dew
Point
Rel
Hum
%
Delta-T
°C
Wind Press
QNH
hPa
Press
MSL
hPa
Rain
since 9 am
mm
Dir
 
Spd
km/h
Gust
km/h
Spd
kts
Gust
kts
23/11:52pm 11.9 0.2 9.3 84 1.3 ENE 61 80 33 43 1019.4 1019.4 0.0
23/11:30pm 12.0 -0.5 9.4 84 1.3 ENE 65 78 35 42 1019.7 1019.7 0.0
23/11:00pm 12.0 1.1 9.4 84 1.3 ENE 57 72 31 39 1020.0 1020.0 0.0
23/10:30pm 12.1 1.8 9.5 84 1.3 E 54 67 29 36 1020.6 1020.6 0.0
23/10:09pm 12.0 2.4 9.4 84 1.3 ENE 50 69 27 37 1020.8 1020.8 0.0
23/10:00pm 12.2 1.4 9.2 82 1.5 ENE 56 69 30 37 1020.7 1020.7 0.0
23/09:30pm 12.2 2.2 9.2 82 1.5 ENE 52 63 28 34 1020.9 1020.9 0.0
23/09:00pm 12.2 3.9 9.4 83 1.4 ENE 43 65 23 35 1021.0 1021.0 0.0
23/08:53pm 12.4 3.6 9.4 82 1.5 ENE 46 65 25 35 1020.9 1020.9 0.0
23/08:30pm 12.3 4.4 9.3 82 1.5 ENE 41 52 22 28 1021.0 1021.0 0.0
23/08:00pm 12.5 3.6 9.1 80 1.7 ENE 46 59 25 32 1020.6 1020.6 0.0
23/07:30pm 12.6 4.7 9.4 81 1.6 ENE 41 54 22 29 1020.7 1020.7 0.0
23/07:12pm 12.8 4.5 9.4 80 1.7 ENE 43 61 23 33 1020.6 1020.6 0.0
23/07:00pm 13.0 4.8 9.6 80 1.7 ENE 43 54 23 29 1020.8 1020.8 0.0
23/06:30pm 13.5 6.1 9.7 78 2.0 ENE 39 52 21 28 1021.0 1021.0 0.0
23/06:00pm 14.0 7.0 10.0 77 2.1 ENE 37 50 20 27 1020.9 1020.9 0.0
23/05:30pm 14.4 7.2 10.4 77 2.1 ENE 39 52 21 28 1021.0 1021.0 0.0
23/05:00pm 14.5 7.2 10.3 76 2.2 ENE 39 48 21 26 1021.1 1021.1 0.0
23/04:30pm 14.7 7.4 10.3 75 2.3 ENE 39 50 21 27 1021.2 1021.2 0.0
23/04:00pm 14.9 7.7 10.7 76 2.2 ENE 39 46 21 25 1021.2 1021.2 0.0
23/03:30pm 14.8 7.7 10.8 77 2.1 E 39 46 21 25 1021.5 1021.5 0.0
23/03:00pm 15.2 8.8 12.0 81 1.7 ENE 37 46 20 25 1021.5 1021.5 0.0
23/02:30pm 15.1 8.1 11.3 78 2.0 ENE 39 50 21 27 1021.8 1021.8 0.0
23/02:11pm 14.7 8.2 11.7 82 1.6 ENE 37 46 20 25 1021.9 1021.9 0.0
23/02:00pm 14.4 8.3 11.6 83 1.5 ENE 35 44 19 24 1022.0 1022.0 0.0
23/01:30pm 14.4 7.5 11.7 84 1.5 ENE 39 46 21 25 1022.0 1022.0 0.0
23/01:00pm 14.2 8.1 11.9 86 1.2 ENE 35 46 19 25 1022.0 1022.0 0.0
23/12:47pm 14.0 8.3 11.3 84 1.4 ENE 32 39 17 21 1022.0 1022.0 0.0
23/12:30pm 15.0 8.7 11.2 78 2.0 ENE 35 46 19 25 1021.9 1021.9 0.0
23/12:02pm 15.9 10.6 13.2 84 1.5 ENE 33 41 18 22 1021.9 1021.9 0.0
23/12:00pm 15.7 10.6 13.0 84 1.5 ENE 32 41 17 22 1022.0 1022.0 0.0
23/11:30am 14.8 9.6 12.8 88 1.1 ENE 32 39 17 21 1022.1 1022.1 0.0
23/11:08am 15.1 10.3 13.0 87 1.2 ENE 30 35 16 19 1022.2 1022.2 0.0
23/11:07am 15.4 10.8 13.6 89 1.0 ENE 30 35 16 19 1022.2 1022.2 0.0
23/11:00am 15.0 10.2 12.9 87 1.2 ENE 30 35 16 19 1022.2 1022.2 0.0
23/10:46am 14.5 9.3 12.7 89 1.0 ENE 32 39 17 21 1022.1 1022.1 0.0
23/10:34am 14.6 10.6 13.0 90 0.9 ENE 26 33 14 18 1022.0 1022.0 0.0
23/10:30am 14.5 10.5 13.0 91 0.8 ENE 26 30 14 16 1022.0 1022.0 0.0
23/10:00am 13.8 10.4 12.4 91 0.8 ENE 22 30 12 16 1022.1 1022.1 0.0
23/09:30am 13.3 10.0 11.7 90 0.9 E 20 26 11 14 1022.1 1022.1 0.0
23/09:00am 13.1 9.9 11.2 88 1.0 E 19 22 10 12 1021.8 1021.8 0.0
23/08:30am 12.7 9.7 10.6 87 1.1 SE 17 20 9 11 1021.7 1021.7 0.0
23/08:28am 12.8 9.8 10.7 87 1.1 SE 17 22 9 12 1021.7 1021.7 0.0
23/08:00am 13.2 10.4 11.3 88 1.0 SSE 17 22 9 12 1020.9 1020.9 0.0
23/07:30am 12.1 8.4 10.3 89 0.9 SSE 20 30 11 16 1020.3 1020.3 0.0
23/07:00am 11.7 8.5 10.1 90 0.8 S 17 26 9 14 1020.2 1020.2 0.0
23/06:30am 11.8 8.1 10.2 90 0.8 SSW 20 26 11 14 1020.0 1020.0 0.0
23/06:00am 11.9 8.2 10.3 90 0.8 S 20 30 11 16 1019.5 1019.5 0.0
23/05:30am 11.9 8.2 10.3 90 0.8 S 20 26 11 14 1019.2 1019.2 0.0
23/05:00am 12.0 8.0 10.4 90 0.8 S 22 30 12 16 1018.7 1018.7 0.0
23/04:30am 12.0 8.4 10.4 90 0.8 S 20 30 11 16 1018.2 1018.2 0.0
23/04:00am 11.8 7.3 10.2 90 0.8 S 24 33 13 18 1018.0 1018.0 0.0
23/03:30am 11.7 8.2 10.1 90 0.8 S 19 26 10 14 1018.3 1018.3 0.0
23/03:00am 12.3 7.6 10.7 90 0.8 SSW 26 41 14 22 1017.4 1017.5 0.0
23/02:41am 12.3 7.3 10.9 91 0.7 S 28 35 15 19 1017.5 1017.6 0.0
23/02:30am 12.3 7.7 10.9 91 0.7 S 26 37 14 20 1017.5 1017.6 0.0
23/02:00am 12.5 6.8 11.1 91 0.7 SSW 32 39 17 21 1017.6 1017.7 0.0
23/01:30am 12.7 7.4 11.3 91 0.7 SSW 30 39 16 21 1017.9 1017.9 0.0
23/01:00am 12.7 6.5 11.4 92 0.7 SSW 35 48 19 26 1018.0 1018.0 0.0
23/12:30am 12.7 5.8 11.6 93 0.6 SSW 39 46 21 25 1018.0 1018.0 0.0
23/12:00am 12.9 7.8 12.0 94 0.5 SSW 30 41 16 22 1018.4 1018.4 0.0

Other Formats:

Comma delimited format used in spreadsheet applications
http://www.bom.gov.au/fwo/IDT60801/IDT60801.95954.axf

JavaScript Object Notation format (JSON) in row-major order
http://www.bom.gov.au/fwo/IDT60801/IDT60801.95954.json